CST,Max TemperatureF,Mean TemperatureF,Min TemperatureF,Max Dew PointF,MeanDew PointF,Min DewpointF,Max Humidity, Mean Humidity, Min Humidity, Max Sea Level PressureIn, Mean Sea Level PressureIn, Min Sea Level PressureIn, Max VisibilityMiles, Mean VisibilityMiles, Min VisibilityMiles, Max Wind SpeedMPH, Mean Wind SpeedMPH, Max Gust SpeedMPH,PrecipitationIn, CloudCover, Events, WindDirDegrees
2012-2-1,46,36,26,41,33,27,100,95,71,30.11,30.07,30.01,10,5,0,7,2,,0.00,3,Fog,193
2012-2-2,48,38,28,37,33,28,100,83,58,30.28,30.22,30.14,10,10,10,8,5,,0.00,0,,38
2012-2-3,33,32,30,34,32,30,100,97,93,30.39,30.35,30.31,10,4,1,21,10,22,0.00,7,,50
2012-2-4,33,30,28,30,29,28,100,96,87,30.36,30.31,30.26,10,5,2,20,14,25,0.00,6,,17
2012-2-5,28,27,26,28,27,27,100,99,93,30.37,30.34,30.30,10,3,0,15,9,17,0.00,8,Fog,322
2012-2-6,44,34,23,36,29,23,100,92,66,30.24,30.14,30.07,10,4,0,13,8,,0.00,5,Fog-Snow,235
2012-2-7,32,28,24,30,24,16,93,83,69,30.47,30.38,30.19,10,10,5,22,14,26,0.00,7,,11
2012-2-8,30,20,10,18,11,7,86,66,37,30.48,30.41,30.30,10,10,10,8,5,,0.00,1,,296
2012-2-9,37,24,10,27,19,9,93,81,60,30.29,30.11,29.97,10,9,7,21,10,29,0.00,2,,216
2012-2-10,24,14,5,19,1,-6,80,61,48,30.43,30.20,30.00,10,10,10,25,21,33,0.00,3,,340
2012-2-11,24,12,0,0,-7,-11,66,47,24,30.63,30.57,30.52,10,10,10,21,14,29,0.00,0,,314
2012-2-12,32,18,3,5,-1,-4,78,52,23,30.50,30.38,30.19,10,10,10,18,8,23,0.00,0,,233
2012-2-13,30,26,21,28,21,7,100,83,43,30.06,29.85,29.73,10,4,0,21,11,25,0.00,8,Snow,174
2012-2-14,35,27,19,30,26,18,100,95,81,29.79,29.74,29.71,10,4,0,20,8,23,0.06,6,Fog-Snow,205
2012-2-15,39,30,21,34,29,21,100,94,81,30.00,29.90,29.83,5,3,2,8,5,,0.00,5,,291
2012-2-16,35,28,21,30,24,19,100,82,60,30.17,30.12,30.05,10,9,4,22,10,25,0.00,0,,269
2012-2-17,39,32,24,30,24,19,93,74,60,30.17,30.04,29.95,10,10,10,17,11,23,0.00,2,,289
2012-2-18,35,26,17,25,19,14,93,73,56,30.27,30.20,30.15,10,10,10,9,4,,0.00,0,,310
2012-2-19,42,30,19,27,22,16,93,70,46,30.14,30.08,30.03,10,10,10,16,8,22,0.00,0,,158
2012-2-20,44,36,28,36,25,19,100,70,53,30.06,29.91,29.72,10,9,3,25,17,32,0.36,3,Rain-Snow,141
2012-2-21,37,34,30,34,31,27,100,87,70,29.70,29.65,29.56,10,9,2,29,15,33,0.08,4,Rain-Snow,260
2012-2-22,44,37,30,36,32,27,100,86,66,29.60,29.47,29.41,10,9,3,17,6,23,0.00,5,Rain-Snow,235
2012-2-23,37,32,28,34,31,28,100,92,81,29.65,29.47,29.38,10,8,1,20,6,24,0.00,6,Snow,56
2012-2-24,30,24,19,28,20,12,100,82,68,30.10,29.90,29.69,10,9,2,26,15,32,0.00,5,Snow,313
2012-2-25,24,17,10,18,13,7,86,76,64,30.25,30.15,30.04,10,9,2,20,12,28,0.00,2,Snow,262
2012-2-26,41,32,24,30,23,16,80,68,56,30.07,29.81,29.65,10,10,10,41,27,52,0.00,1,,225
2012-2-27,32,24,17,21,15,10,86,73,60,30.46,30.35,30.15,10,10,10,24,16,32,0.00,0,,293
2012-2-28,35,32,28,36,28,23,100,87,75,30.31,30.01,29.56,10,6,1,21,13,31,0.90,8,Rain-Snow,127
2012-2-29,42,38,33,43,34,30,100,95,87,29.71,29.35,29.16,10,6,0,30,20,38,0.21,8,Rain-Snow,250